Time;durP1;ratioP1;P1;durP2;ratioP2;P2;SDS_P1;SDS_P2;PMS_P1;PMS_P2;Temp;Humidity;BMP_temperature;BMP_pressure;BME280_temperature;BME280_humidity;BME280_pressure;Samples;Min_cycle;Max_cycle;Signal;HPM_P1;HPM_P2
2021/04/18 00:02:23;;;;;;;42.63;24.27;;;6.50;99.90;;;;;;4897870;29;20186;-87
2021/04/18 00:04:49;;;;;;;43.37;24.30;;;6.50;99.90;;;;;;4897852;29;20189;-87
2021/04/18 00:07:15;;;;;;;40.97;23.50;;;6.50;99.90;;;;;;4883492;29;20182;-86
2021/04/18 00:09:42;;;;;;;47.17;25.43;;;6.50;99.90;;;;;;4897573;29;20241;-86
2021/04/18 00:12:10;;;;;;;49.57;26.10;;;6.50;99.90;;;;;;4897541;29;20189;-87
2021/04/18 00:14:36;;;;;;;41.73;24.60;;;6.50;99.90;;;;;;4897596;29;20178;-87
2021/04/18 00:17:03;;;;;;;42.77;23.80;;;6.50;99.90;;;;;;4897723;29;20230;-87
2021/04/18 00:19:33;;;;;;;42.60;25.23;;;6.50;99.90;;;;;;4883480;29;20226;-87
2021/04/18 00:21:59;;;;;;;45.40;23.97;;;6.50;99.90;;;;;;4883564;29;20182;-88
2021/04/18 00:24:24;;;;;;;45.47;24.67;;;6.50;99.90;;;;;;4883129;29;20666;-88
2021/04/18 00:26:50;;;;;;;45.47;24.90;;;6.50;99.90;;;;;;4882983;29;20238;-89
2021/04/18 00:29:15;;;;;;;44.73;25.33;;;6.50;99.90;;;;;;4897126;29;20193;-86
2021/04/18 00:31:41;;;;;;;39.80;22.93;;;6.60;99.90;;;;;;4883039;29;20238;-87
2021/04/18 00:34:06;;;;;;;45.60;24.13;;;6.50;99.90;;;;;;4882937;29;20525;-87
2021/04/18 00:36:32;;;;;;;40.80;23.33;;;6.50;99.90;;;;;;4882947;29;20201;-87
2021/04/18 00:38:58;;;;;;;43.60;24.27;;;6.60;99.90;;;;;;4897181;29;20214;-86
2021/04/18 00:41:24;;;;;;;44.20;23.40;;;6.60;99.90;;;;;;4897279;29;20190;-86
2021/04/18 00:43:50;;;;;;;43.43;24.43;;;6.50;99.90;;;;;;4881518;29;20782;-87
2021/04/18 00:46:15;;;;;;;40.87;23.70;;;6.40;99.90;;;;;;4881309;29;20316;-87
2021/04/18 00:48:43;;;;;;;42.57;23.23;;;6.50;99.90;;;;;;4897121;29;20197;-87
2021/04/18 00:51:13;;;;;;;50.40;24.83;;;6.40;99.90;;;;;;4881322;29;20713;-87
2021/04/18 00:53:39;;;;;;;45.07;23.77;;;6.40;99.90;;;;;;4882498;29;20205;-88
2021/04/18 00:56:05;;;;;;;47.70;24.47;;;6.40;99.90;;;;;;4882456;29;20230;-87
2021/04/18 00:58:32;;;;;;;48.00;24.97;;;6.40;99.90;;;;;;4896816;29;20210;-87
2021/04/18 01:00:58;;;;;;;45.20;25.50;;;6.40;99.90;;;;;;4896653;29;20196;-87
2021/04/18 01:03:23;;;;;;;42.30;24.07;;;6.40;99.90;;;;;;4888718;29;20185;-87
2021/04/18 01:05:49;;;;;;;46.60;26.10;;;6.40;99.90;;;;;;4886259;29;20190;-89
2021/04/18 01:08:14;;;;;;;43.50;23.67;;;6.40;99.90;;;;;;4882366;29;20190;-87
2021/04/18 01:10:41;;;;;;;49.80;25.93;;;6.40;99.90;;;;;;4896637;29;20566;-87
2021/04/18 01:13:06;;;;;;;45.50;24.90;;;6.40;99.90;;;;;;4881997;29;20190;-87
2021/04/18 01:15:32;;;;;;;43.23;24.43;;;6.40;99.90;;;;;;4882358;29;20194;-87
2021/04/18 01:17:58;;;;;;;45.50;26.23;;;6.40;99.90;;;;;;4881882;29;20620;-89
2021/04/18 01:20:24;;;;;;;46.53;25.50;;;6.40;99.90;;;;;;4882382;29;20194;-87
2021/04/18 01:22:50;;;;;;;45.13;24.93;;;6.40;99.90;;;;;;4896682;29;20190;-87
2021/04/18 01:25:17;;;;;;;45.43;26.60;;;6.40;99.90;;;;;;4896488;29;20197;-87
2021/04/18 01:27:46;;;;;;;43.30;24.47;;;6.40;99.90;;;;;;4881811;29;20190;-87
2021/04/18 01:30:22;;;;;;;44.97;25.13;;;6.40;99.90;;;;;;4880334;29;20572;-87
2021/04/18 01:32:52;;;;;;;48.20;24.93;;;6.40;99.90;;;;;;4882245;29;20238;-87
2021/04/18 01:35:18;;;;;;;46.70;25.17;;;6.50;99.90;;;;;;4881910;29;20241;-88
2021/04/18 01:37:44;;;;;;;48.00;26.77;;;6.50;99.90;;;;;;4881793;29;20193;-87
2021/04/18 01:40:18;;;;;;;45.57;26.60;;;6.50;99.90;;;;;;4881673;29;20276;-87
2021/04/18 01:42:45;;;;;;;49.03;26.63;;;6.50;99.90;;;;;;4881415;29;20209;-87
2021/04/18 01:45:13;;;;;;;47.03;26.63;;;6.50;99.90;;;;;;4881592;29;20262;-87
2021/04/18 01:47:40;;;;;;;44.67;24.50;;;6.40;99.90;;;;;;4881928;29;20194;-88
2021/04/18 01:50:09;;;;;;;49.07;24.17;;;6.40;99.90;;;;;;4881786;29;20231;-88
2021/04/18 01:52:35;;;;;;;45.40;26.30;;;6.30;99.90;;;;;;4881482;29;20273;-88
2021/04/18 01:55:00;;;;;;;47.00;26.97;;;6.40;99.90;;;;;;4881562;29;20217;-88
2021/04/18 01:57:26;;;;;;;48.07;25.80;;;6.40;99.90;;;;;;4895686;29;20190;-88
2021/04/18 01:59:52;;;;;;;50.27;26.10;;;6.40;99.90;;;;;;4895696;29;20218;-88
2021/04/18 02:02:18;;;;;;;43.67;24.30;;;6.40;99.90;;;;;;4880986;29;20197;-88
2021/04/18 02:04:43;;;;;;;44.97;24.43;;;6.40;99.90;;;;;;4880019;29;20648;-88
2021/04/18 02:07:09;;;;;;;41.73;24.17;;;6.40;99.90;;;;;;4881337;29;20264;-88
2021/04/18 02:09:36;;;;;;;45.10;24.67;;;6.40;99.90;;;;;;4895698;29;20190;-88
2021/04/18 02:12:06;;;;;;;48.37;25.30;;;6.40;99.90;;;;;;4895476;29;20186;-88
2021/04/18 02:14:33;;;;;;;43.93;25.00;;;6.40;99.90;;;;;;4881348;29;20174;-88
2021/04/18 02:16:58;;;;;;;45.47;24.87;;;6.30;99.90;;;;;;4881173;29;20194;-88
2021/04/18 02:19:24;;;;;;;47.60;25.40;;;6.30;99.90;;;;;;4879654;29;20221;-89
2021/04/18 02:21:50;;;;;;;49.37;27.10;;;6.30;99.90;;;;;;4881123;29;20200;-88
2021/04/18 02:24:15;;;;;;;48.20;26.13;;;6.30;99.90;;;;;;4879733;29;20197;-88
2021/04/18 02:26:41;;;;;;;45.03;25.17;;;6.40;99.90;;;;;;4880913;29;20192;-88
2021/04/18 02:29:08;;;;;;;41.17;24.80;;;6.40;99.90;;;;;;4881049;29;20198;-88
2021/04/18 02:31:33;;;;;;;44.37;25.33;;;6.30;99.90;;;;;;4881397;29;20182;-88
2021/04/18 02:33:59;;;;;;;47.77;25.50;;;6.30;99.90;;;;;;4895461;29;20419;-88
2021/04/18 02:36:25;;;;;;;52.73;26.43;;;6.30;99.90;;;;;;4879334;29;20621;-88
2021/04/18 02:38:51;;;;;;;44.97;25.10;;;6.20;99.90;;;;;;4894839;29;20568;-87
2021/04/18 02:41:16;;;;;;;47.83;25.43;;;6.20;99.90;;;;;;4894999;29;20186;-87
2021/04/18 02:43:42;;;;;;;46.03;26.00;;;6.20;99.90;;;;;;4880700;29;20185;-87
2021/04/18 02:46:08;;;;;;;46.33;26.07;;;6.20;99.90;;;;;;4895075;29;20559;-87
2021/04/18 02:48:34;;;;;;;47.87;25.83;;;6.30;99.90;;;;;;4880907;29;20699;-87
2021/04/18 02:51:00;;;;;;;53.33;27.33;;;6.20;99.90;;;;;;4880643;29;20182;-87
2021/04/18 02:53:26;;;;;;;44.63;25.23;;;6.20;99.90;;;;;;4880447;29;20533;-88
2021/04/18 02:55:52;;;;;;;48.43;24.00;;;6.20;99.90;;;;;;4880817;29;20269;-88
2021/04/18 02:58:18;;;;;;;50.10;27.23;;;6.20;99.90;;;;;;4880362;29;20570;-88
2021/04/18 03:00:43;;;;;;;52.73;26.77;;;6.20;99.90;;;;;;4894888;29;20652;-88
2021/04/18 03:03:09;;;;;;;49.20;26.23;;;6.10;99.90;;;;;;4880497;29;20189;-88
2021/04/18 03:05:35;;;;;;;57.83;28.83;;;6.10;99.90;;;;;;4894862;29;20193;-88
2021/04/18 03:08:00;;;;;;;54.47;27.87;;;6.10;99.90;;;;;;4880221;29;20186;-87
2021/04/18 03:10:28;;;;;;;51.57;27.97;;;6.10;99.90;;;;;;4880197;29;20550;-88
2021/04/18 03:12:54;;;;;;;53.77;28.80;;;6.10;99.90;;;;;;4879707;29;20177;-87
2021/04/18 03:15:21;;;;;;;53.27;28.60;;;6.10;99.90;;;;;;4880169;29;20249;-89
2021/04/18 03:17:46;;;;;;;55.80;29.17;;;6.10;99.90;;;;;;4894599;29;20178;-89
2021/04/18 03:20:13;;;;;;;51.27;28.60;;;6.10;99.90;;;;;;4894648;29;20661;-88
2021/04/18 03:22:39;;;;;;;55.33;28.80;;;6.10;99.90;;;;;;4894389;29;20276;-88
2021/04/18 03:25:05;;;;;;;56.43;28.77;;;6.10;99.90;;;;;;4899005;29;20224;-87
2021/04/18 03:27:30;;;;;;;60.13;29.67;;;6.10;99.90;;;;;;4896101;29;20258;-86
2021/04/18 03:29:56;;;;;;;50.63;26.80;;;6.00;99.90;;;;;;4888235;29;20242;-86
2021/04/18 03:32:22;;;;;;;55.10;29.87;;;6.00;99.90;;;;;;4896483;29;20189;-87
2021/04/18 03:34:48;;;;;;;58.57;29.40;;;6.00;99.90;;;;;;4894766;29;20585;-87
2021/04/18 03:37:13;;;;;;;53.90;28.60;;;6.00;99.90;;;;;;4880310;29;20190;-86
2021/04/18 03:39:40;;;;;;;62.63;30.77;;;6.00;99.90;;;;;;4879755;29;20228;-87
2021/04/18 03:42:06;;;;;;;57.77;29.30;;;6.00;99.90;;;;;;4894486;29;20193;-87
2021/04/18 03:44:32;;;;;;;72.50;39.87;;;6.10;99.90;;;;;;4894471;29;20186;-86
2021/04/18 03:46:57;;;;;;;62.00;33.73;;;6.10;99.90;;;;;;4894373;29;20190;-86
2021/04/18 03:49:23;;;;;;;61.07;31.27;;;6.10;99.90;;;;;;4879944;29;20225;-87
2021/04/18 03:51:49;;;;;;;58.43;30.47;;;6.10;99.90;;;;;;4894455;29;20186;-87
2021/04/18 03:54:15;;;;;;;56.90;30.47;;;6.20;99.90;;;;;;4894272;29;20252;-87
2021/04/18 03:56:41;;;;;;;53.20;29.57;;;6.20;99.90;;;;;;4879990;29;20193;-86
2021/04/18 03:59:07;;;;;;;52.73;29.20;;;6.20;99.90;;;;;;4879993;29;20218;-86
2021/04/18 04:01:32;;;;;;;52.47;28.47;;;6.20;99.90;;;;;;4881445;29;20533;-84
2021/04/18 04:03:58;;;;;;;49.97;27.37;;;6.30;99.90;;;;;;4884256;29;20246;-85
2021/04/18 04:06:24;;;;;;;55.73;28.90;;;6.20;99.90;;;;;;4883748;29;20658;-85
2021/04/18 04:08:49;;;;;;;57.73;30.20;;;6.20;99.90;;;;;;4894596;29;20241;-86
2021/04/18 04:11:15;;;;;;;53.17;28.43;;;6.30;99.90;;;;;;4893916;29;20534;-86
2021/04/18 04:13:40;;;;;;;56.17;30.20;;;6.30;99.90;;;;;;4879853;29;20193;-86
2021/04/18 04:16:06;;;;;;;52.80;28.43;;;6.30;99.90;;;;;;4894143;29;20213;-86
2021/04/18 04:18:32;;;;;;;49.37;28.13;;;6.30;99.90;;;;;;4893550;29;20213;-86
2021/04/18 04:20:58;;;;;;;58.47;30.50;;;6.30;99.90;;;;;;4879096;29;20651;-86
2021/04/18 04:23:23;;;;;;;61.83;31.33;;;6.20;99.90;;;;;;4879541;29;20660;-85
2021/04/18 04:25:49;;;;;;;61.87;31.67;;;6.20;99.90;;;;;;4896393;29;20190;-86
2021/04/18 04:28:15;;;;;;;56.10;30.03;;;6.20;99.90;;;;;;4883334;29;20213;-85
2021/04/18 04:30:41;;;;;;;52.87;29.53;;;6.30;99.90;;;;;;4882781;29;20313;-85
2021/04/18 04:33:07;;;;;;;55.23;29.37;;;6.30;99.90;;;;;;4882902;29;20524;-85
2021/04/18 04:35:32;;;;;;;60.83;30.57;;;6.40;99.90;;;;;;4882881;29;20277;-86
2021/04/18 04:37:58;;;;;;;57.33;30.43;;;6.40;99.90;;;;;;4897308;29;20189;-86
2021/04/18 04:40:25;;;;;;;55.30;29.00;;;6.40;99.90;;;;;;4882732;29;20190;-85
2021/04/18 04:42:52;;;;;;;65.13;31.40;;;6.40;99.90;;;;;;4882828;29;20193;-85
2021/04/18 04:45:18;;;;;;;50.70;30.03;;;6.40;99.90;;;;;;4897036;29;20590;-86
2021/04/18 04:47:43;;;;;;;59.10;31.77;;;6.50;99.90;;;;;;4882725;29;20244;-86
2021/04/18 04:50:10;;;;;;;62.87;32.00;;;6.50;99.90;;;;;;4882531;29;20182;-86
2021/04/18 04:52:36;;;;;;;61.70;32.60;;;6.50;99.90;;;;;;4897368;29;20181;-86
2021/04/18 04:55:03;;;;;;;55.40;30.07;;;6.50;99.90;;;;;;4881865;29;20675;-86
2021/04/18 04:57:28;;;;;;;58.73;30.93;;;6.50;99.90;;;;;;4881861;29;20640;-87
2021/04/18 04:59:54;;;;;;;59.97;31.80;;;6.50;99.90;;;;;;4880456;29;20304;-86
2021/04/18 05:02:20;;;;;;;59.50;30.63;;;6.60;99.90;;;;;;4882035;29;20193;-86
2021/04/18 05:04:45;;;;;;;61.57;32.90;;;6.60;99.90;;;;;;4881841;29;20182;-86
2021/04/18 05:07:11;;;;;;;60.27;31.90;;;6.70;99.90;;;;;;4880063;29;20194;-85
2021/04/18 05:09:37;;;;;;;70.50;34.50;;;6.70;99.90;;;;;;4876602;29;20190;-86
2021/04/18 05:12:04;;;;;;;81.27;34.43;;;6.80;99.90;;;;;;4879175;29;20752;-86
2021/04/18 05:14:30;;;;;;;83.03;33.47;;;6.80;99.90;;;;;;4880322;29;20193;-86
2021/04/18 05:16:55;;;;;;;77.60;36.00;;;6.80;99.90;;;;;;4876034;29;20194;-86
2021/04/18 05:19:21;;;;;;;70.87;33.53;;;6.90;99.90;;;;;;4874958;29;20225;-86
2021/04/18 05:21:47;;;;;;;86.13;35.40;;;7.00;99.90;;;;;;4875353;29;20692;-85
2021/04/18 05:24:13;;;;;;;78.50;37.03;;;7.00;99.90;;;;;;4880724;29;20258;-86
2021/04/18 05:26:39;;;;;;;89.20;39.07;;;7.00;99.90;;;;;;4880748;29;20245;-86
2021/04/18 05:29:04;;;;;;;70.63;35.37;;;7.10;99.90;;;;;;4875747;29;20216;-85
2021/04/18 05:31:30;;;;;;;70.80;34.47;;;7.10;99.90;;;;;;4889309;29;20663;-85
2021/04/18 05:33:56;;;;;;;77.07;36.20;;;7.10;99.90;;;;;;4868259;29;20261;-86
2021/04/18 05:36:21;;;;;;;86.03;35.20;;;7.20;99.90;;;;;;4887317;29;20712;-85
2021/04/18 05:38:47;;;;;;;86.90;35.37;;;7.20;99.90;;;;;;4871034;29;20253;-84
2021/04/18 05:41:13;;;;;;;81.03;37.47;;;7.20;99.90;;;;;;4869289;29;20194;-87
2021/04/18 05:43:39;;;;;;;78.23;36.07;;;7.30;99.90;;;;;;4877623;29;20643;-87
2021/04/18 05:46:04;;;;;;;86.70;37.33;;;7.30;99.90;;;;;;4876890;29;20593;-88
2021/04/18 05:48:30;;;;;;;79.17;32.50;;;7.30;99.90;;;;;;4876978;29;20205;-89
2021/04/18 05:50:56;;;;;;;81.77;33.50;;;7.30;99.90;;;;;;4876542;29;20193;-88
2021/04/18 05:53:21;;;;;;;79.47;32.03;;;7.30;99.90;;;;;;4875729;29;20226;-86
2021/04/18 05:55:47;;;;;;;74.40;32.40;;;7.30;99.90;;;;;;4878585;29;20194;-85
2021/04/18 05:58:13;;;;;;;77.53;35.07;;;7.30;99.90;;;;;;4878098;29;20277;-89
2021/04/18 06:00:39;;;;;;;72.10;33.10;;;7.40;99.90;;;;;;4878591;29;20194;-86
2021/04/18 06:03:05;;;;;;;78.47;34.73;;;7.50;99.90;;;;;;4878140;29;20186;-84
2021/04/18 06:05:32;;;;;;;67.30;31.20;;;7.50;99.90;;;;;;4878354;29;20196;-84
2021/04/18 06:07:57;;;;;;;69.33;32.10;;;7.50;99.90;;;;;;4873066;29;20227;-85
2021/04/18 06:10:23;;;;;;;68.00;33.20;;;7.50;99.90;;;;;;4876614;29;20194;-84
2021/04/18 06:12:49;;;;;;;64.83;32.03;;;7.60;99.90;;;;;;4877259;29;20686;-85
2021/04/18 06:15:15;;;;;;;68.27;31.50;;;7.60;99.90;;;;;;4876989;29;20758;-85
2021/04/18 06:17:40;;;;;;;71.13;32.27;;;7.70;99.90;;;;;;4878571;29;20557;-86
2021/04/18 06:20:07;;;;;;;73.13;32.00;;;7.70;99.90;;;;;;4875722;29;20229;-87
2021/04/18 06:22:33;;;;;;;75.23;32.10;;;7.70;99.90;;;;;;4866879;29;20205;-89
2021/04/18 06:24:59;;;;;;;76.30;35.17;;;7.80;99.90;;;;;;4877860;29;20217;-90
2021/04/18 06:27:25;;;;;;;88.93;35.93;;;7.90;99.90;;;;;;4877299;29;20224;-88
2021/04/18 06:29:50;;;;;;;77.40;33.27;;;8.00;99.90;;;;;;4876803;29;20710;-89
2021/04/18 06:32:16;;;;;;;76.27;33.67;;;8.20;99.90;;;;;;4878086;29;20185;-90
2021/04/18 06:34:42;;;;;;;75.47;32.77;;;8.40;99.90;;;;;;4888309;29;20757;-91
2021/04/18 06:37:08;;;;;;;76.73;34.27;;;8.40;99.90;;;;;;4891970;29;20194;-89
2021/04/18 06:39:34;;;;;;;73.57;32.90;;;8.50;99.90;;;;;;4877948;29;20248;-88
2021/04/18 06:42:04;;;;;;;76.70;30.23;;;8.40;99.90;;;;;;4877675;29;20778;-88
2021/04/18 06:44:31;;;;;;;75.57;32.53;;;8.40;99.90;;;;;;4877132;29;20277;-89
2021/04/18 06:46:58;;;;;;;64.00;29.80;;;8.50;99.90;;;;;;4859264;29;20714;-91
2021/04/18 06:49:28;;;;;;;65.07;29.03;;;8.60;99.90;;;;;;4873697;29;20272;-90
2021/04/18 06:51:56;;;;;;;60.90;28.87;;;8.70;99.90;;;;;;4891090;29;20212;-89
2021/04/18 06:54:21;;;;;;;63.17;30.43;;;9.00;99.90;;;;;;4860750;29;20202;-88
2021/04/18 06:56:47;;;;;;;61.30;29.63;;;9.10;99.90;;;;;;4878077;29;20652;-89
2021/04/18 06:59:13;;;;;;;55.30;27.80;;;9.40;99.90;;;;;;4874060;29;20215;-89
2021/04/18 07:01:39;;;;;;;66.90;28.43;;;9.50;99.90;;;;;;4903331;29;20257;-86
2021/04/18 07:04:16;;;;;;;60.10;27.93;;;9.70;99.90;;;;;;4882621;29;20222;-85
2021/04/18 07:06:54;;;;;;;60.83;27.87;;;9.90;99.90;;;;;;4892403;29;20222;-89
2021/04/18 07:09:22;;;;;;;61.43;28.43;;;9.80;99.90;;;;;;4894037;29;20193;-91
2021/04/18 07:11:52;;;;;;;63.23;29.33;;;9.70;99.90;;;;;;4867147;29;20217;-87
2021/04/18 07:14:19;;;;;;;55.63;26.23;;;9.70;99.90;;;;;;4870349;29;20660;-86
2021/04/18 07:16:45;;;;;;;57.40;25.10;;;9.60;99.90;;;;;;4877463;29;20257;-90
2021/04/18 07:19:21;;;;;;;48.80;24.80;;;9.60;99.90;;;;;;4877705;29;20312;-89
2021/04/18 07:21:50;;;;;;;48.00;24.53;;;9.50;99.90;;;;;;4879427;29;20222;-89
2021/04/18 07:24:17;;;;;;;49.13;24.97;;;9.70;99.90;;;;;;4878399;29;20201;-91
2021/04/18 07:26:43;;;;;;;41.00;21.97;;;9.70;99.90;;;;;;4874552;29;20696;-89
2021/04/18 07:29:13;;;;;;;46.93;22.10;;;9.60;99.90;;;;;;4877724;29;20290;-90
2021/04/18 07:31:38;;;;;;;47.60;23.43;;;9.80;99.90;;;;;;4877362;29;20209;-92
2021/04/18 07:34:11;;;;;;;51.30;24.33;;;10.00;99.90;;;;;;4886386;29;20246;-91
2021/04/18 07:36:39;;;;;;;50.90;25.47;;;10.00;99.90;;;;;;4876666;29;20213;-92
2021/04/18 07:39:07;;;;;;;42.07;21.87;;;10.20;99.90;;;;;;4903233;29;20285;-92
2021/04/18 07:41:41;;;;;;;43.10;20.50;;;10.50;99.90;;;;;;4873436;29;20669;-92
2021/04/18 07:44:14;;;;;;;40.23;19.03;;;10.70;99.90;;;;;;4874469;29;20623;-86
2021/04/18 07:46:52;;;;;;;36.23;19.33;;;10.70;99.90;;;;;;4869512;29;20206;-92
2021/04/18 07:49:19;;;;;;;39.27;20.60;;;10.70;99.90;;;;;;4887192;29;20655;-94
2021/04/18 07:51:46;;;;;;;37.33;17.80;;;10.50;99.90;;;;;;4874932;29;20261;-91
2021/04/18 07:54:13;;;;;;;41.33;19.90;;;10.40;99.90;;;;;;4873511;29;20189;-92
2021/04/18 07:56:49;;;;;;;46.60;22.77;;;10.20;99.90;;;;;;4876133;29;20564;-91
2021/04/18 07:59:16;;;;;;;46.57;22.27;;;10.00;99.90;;;;;;4865121;29;20305;-91
2021/04/18 08:01:42;;;;;;;39.50;21.03;;;9.90;99.90;;;;;;4878068;29;20253;-91
2021/04/18 08:04:09;;;;;;;42.90;20.30;;;10.00;99.90;;;;;;4877947;29;20198;-89
2021/04/18 08:06:39;;;;;;;35.47;17.30;;;9.90;99.90;;;;;;4867567;29;20233;-91
2021/04/18 08:09:19;;;;;;;40.23;19.37;;;10.10;99.90;;;;;;4895767;29;20252;-89
2021/04/18 08:12:11;;;;;;;36.27;18.70;;;10.40;99.90;;;;;;4882448;29;20193;-91
2021/04/18 08:14:39;;;;;;;37.47;18.40;;;10.30;99.90;;;;;;4895152;29;20198;-91
2021/04/18 08:17:09;;;;;;;38.37;17.60;;;10.40;99.90;;;;;;4883724;29;20193;-93
2021/04/18 08:19:36;;;;;;;36.55;18.73;;;10.50;99.90;;;;;;4897128;29;20217;-91
2021/04/18 08:22:03;;;;;;;31.53;16.90;;;10.60;99.90;;;;;;4878777;29;20190;-94
2021/04/18 08:24:33;;;;;;;35.57;18.03;;;10.40;99.90;;;;;;4880471;29;20182;-92
2021/04/18 08:27:06;;;;;;;33.23;17.43;;;10.40;99.90;;;;;;4882890;29;20189;-93
2021/04/18 08:29:33;;;;;;;38.20;19.00;;;10.50;99.90;;;;;;4881816;29;20246;-93
2021/04/18 08:32:06;;;;;;;37.27;19.23;;;10.90;99.90;;;;;;4887931;29;20213;-88
2021/04/18 08:34:42;;;;;;;43.43;18.80;;;11.30;99.90;;;;;;4880619;29;20190;-90
2021/04/18 08:37:19;;;;;;;38.45;17.15;;;11.50;99.90;;;;;;4910413;29;20185;-90
2021/04/18 08:39:45;;;;;;;25.37;13.10;;;11.90;99.90;;;;;;4881784;29;20214;-92
2021/04/18 08:42:24;;;;;;;37.85;17.05;;;11.80;99.90;;;;;;4880175;29;20205;-90
2021/04/18 08:44:51;;;;;;;30.60;16.10;;;11.80;99.90;;;;;;4895731;29;20276;-87
2021/04/18 08:47:21;;;;;;;31.00;15.93;;;12.00;99.90;;;;;;4880324;29;20210;-91
2021/04/18 08:49:54;;;;;;;23.05;13.05;;;12.20;99.90;;;;;;4880905;29;20221;-91
2021/04/18 08:52:22;;;;;;;29.60;15.88;;;12.10;99.90;;;;;;4881394;29;20220;-91
2021/04/18 08:54:49;;;;;;;26.17;13.77;;;11.80;99.90;;;;;;4881912;29;20552;-91
2021/04/18 08:57:15;;;;;;;23.63;13.82;;;11.60;99.90;;;;;;4881870;29;20194;-91
2021/04/18 08:59:45;;;;;;;21.65;12.25;;;11.90;99.90;;;;;;4881509;29;20221;-93
2021/04/18 09:02:13;;;;;;;22.92;12.85;;;12.10;99.90;;;;;;4881362;29;20204;-91
2021/04/18 09:04:43;;;;;;;23.63;13.00;;;12.50;99.90;;;;;;4881972;29;20193;-95
2021/04/18 09:07:13;;;;;;;54.70;24.20;;;12.70;99.90;;;;;;4882007;29;20181;-93
2021/04/18 09:09:40;;;;;;;20.33;11.00;;;12.50;99.90;;;;;;4888149;29;20226;-93
2021/04/18 09:12:06;;;;;;;23.15;11.00;;;12.60;99.90;;;;;;4872633;29;20190;-93
2021/04/18 09:14:47;;;;;;;19.17;11.32;;;12.50;99.90;;;;;;4863754;29;20246;-91
2021/04/18 09:17:23;;;;;;;19.85;10.70;;;12.40;99.90;;;;;;4871900;29;20213;-91
2021/04/18 09:19:57;;;;;;;17.92;10.25;;;12.30;99.90;;;;;;4874887;29;20221;-92
2021/04/18 09:22:39;;;;;;;8.88;5.43;;;12.20;99.90;;;;;;4870025;29;20280;-91
2021/04/18 09:25:09;;;;;;;12.38;7.20;;;12.20;99.90;;;;;;4888849;29;20226;-92
2021/04/18 09:27:41;;;;;;;15.32;8.60;;;12.20;99.90;;;;;;4879218;29;20686;-92
2021/04/18 09:30:12;;;;;;;15.75;8.63;;;12.20;99.90;;;;;;4894389;29;20293;-93
2021/04/18 09:32:47;;;;;;;19.35;10.00;;;12.10;99.90;;;;;;4880268;29;20194;-92
2021/04/18 09:35:14;;;;;;;17.13;10.27;;;12.30;99.90;;;;;;4872409;29;20198;-90
2021/04/18 09:37:56;;;;;;;17.35;9.57;;;12.40;99.90;;;;;;4879725;29;20198;-88
2021/04/18 09:40:24;;;;;;;16.65;10.13;;;12.30;99.90;;;;;;4875424;29;20213;-91
2021/04/18 09:42:51;;;;;;;18.33;9.73;;;12.30;99.90;;;;;;4870937;29;20194;-90
2021/04/18 09:45:25;;;;;;;22.65;10.13;;;12.10;99.90;;;;;;4871528;29;20189;-87
2021/04/18 09:47:53;;;;;;;15.82;8.82;;;12.10;99.90;;;;;;4886176;29;20602;-90
2021/04/18 09:50:30;;;;;;;16.70;9.50;;;11.90;99.90;;;;;;4885473;29;20209;-89
2021/04/18 09:53:24;;;;;;;15.05;8.90;;;12.10;99.90;;;;;;4876254;29;20252;-89
2021/04/18 09:56:16;;;;;;;16.13;8.85;;;12.10;99.90;;;;;;4880159;29;20217;-91
2021/04/18 09:58:42;;;;;;;14.13;8.35;;;12.10;99.90;;;;;;4881671;29;20263;-90
2021/04/18 10:01:28;;;;;;;15.57;9.30;;;12.30;99.90;;;;;;4898048;29;20191;-91
2021/04/18 10:03:54;;;;;;;18.33;9.30;;;12.40;99.90;;;;;;4871932;29;20194;-90
2021/04/18 10:06:20;;;;;;;14.35;8.63;;;12.30;99.90;;;;;;4869596;29;20194;-88
2021/04/18 10:08:53;;;;;;;15.35;8.93;;;12.40;99.90;;;;;;4873469;29;20280;-90
2021/04/18 10:11:21;;;;;;;17.52;9.18;;;12.50;99.90;;;;;;4877474;29;20241;-93
2021/04/18 10:13:54;;;;;;;15.38;9.70;;;12.60;99.90;;;;;;4870667;29;20225;-89
2021/04/18 10:16:41;;;;;;;26.75;15.93;;;12.80;99.90;;;;;;4871089;29;20186;-89
2021/04/18 10:19:18;;;;;;;19.27;9.65;;;12.90;98.80;;;;;;4868590;29;20675;-90
2021/04/18 10:22:08;;;;;;;14.63;7.72;;;13.00;99.60;;;;;;4887083;29;20289;-90
2021/04/18 10:24:50;;;;;;;12.30;7.82;;;13.00;99.60;;;;;;4872125;29;20284;-87
2021/04/18 10:27:24;;;;;;;15.32;8.10;;;13.10;96.30;;;;;;4870634;29;20263;-89
2021/04/18 10:29:50;;;;;;;14.85;8.25;;;13.10;93.70;;;;;;4875133;29;20228;-87
2021/04/18 10:32:18;;;;;;;14.35;7.90;;;13.10;94.80;;;;;;4873242;29;20308;-89
2021/04/18 10:34:45;;;;;;;18.20;9.43;;;13.00;97.90;;;;;;4884185;29;20186;-89
2021/04/18 10:37:11;;;;;;;17.60;9.05;;;13.10;94.80;;;;;;4872765;29;20205;-88
2021/04/18 10:39:37;;;;;;;12.50;8.18;;;13.10;95.80;;;;;;4891076;29;20214;-89
2021/04/18 10:42:03;;;;;;;13.80;8.48;;;13.00;96.70;;;;;;4872996;29;20675;-90
2021/04/18 10:44:28;;;;;;;17.63;8.90;;;13.40;96.80;;;;;;4875999;29;20195;-87
2021/04/18 10:46:57;;;;;;;14.57;8.07;;;13.60;94.30;;;;;;4871815;29;20197;-92
2021/04/18 10:49:24;;;;;;;15.55;8.73;;;13.60;91.40;;;;;;4867970;29;20197;-93
2021/04/18 10:51:50;;;;;;;17.50;9.75;;;13.30;90.40;;;;;;4876347;29;20249;-92
2021/04/18 10:54:17;;;;;;;13.63;8.32;;;13.10;94.10;;;;;;4877440;29;20182;-91
2021/04/18 10:56:50;;;;;;;15.18;8.70;;;13.00;93.90;;;;;;4877882;29;20194;-90
2021/04/18 10:59:17;;;;;;;12.65;8.20;;;13.10;96.80;;;;;;4875968;29;20701;-91
2021/04/18 11:01:43;;;;;;;12.40;7.97;;;13.40;94.30;;;;;;4876260;29;20198;-91
2021/04/18 11:04:10;;;;;;;16.33;9.18;;;13.70;91.30;;;;;;4879446;29;20182;-91
2021/04/18 11:06:36;;;;;;;21.10;11.43;;;13.60;91.50;;;;;;4893030;29;20202;-92
2021/04/18 11:09:02;;;;;;;20.35;10.90;;;13.70;92.10;;;;;;4876596;29;20284;-92
2021/04/18 11:11:27;;;;;;;21.98;11.70;;;13.80;95.00;;;;;;4878980;29;20291;-91
2021/04/18 11:13:53;;;;;;;14.88;8.88;;;13.90;96.60;;;;;;4871923;29;20629;-92
2021/04/18 11:16:19;;;;;;;19.55;11.88;;;14.20;91.60;;;;;;4884384;29;20274;-92
2021/04/18 11:18:45;;;;;;;21.33;13.27;;;14.20;92.20;;;;;;4878259;29;20592;-91
2021/04/18 11:21:11;;;;;;;23.75;13.85;;;14.30;93.30;;;;;;4862157;29;20197;-91
2021/04/18 11:23:37;;;;;;;19.73;12.63;;;14.40;93.30;;;;;;4877043;29;20193;-91
2021/04/18 11:26:03;;;;;;;22.70;13.10;;;14.30;93.60;;;;;;4892838;29;20197;-90
2021/04/18 11:28:29;;;;;;;20.42;11.60;;;14.30;91.10;;;;;;4878743;29;20190;-90
2021/04/18 11:30:55;;;;;;;20.25;11.40;;;14.20;91.50;;;;;;4861947;29;20241;-92
2021/04/18 11:33:22;;;;;;;22.92;12.23;;;13.90;90.90;;;;;;4882929;29;20205;-89
2021/04/18 11:35:47;;;;;;;20.45;11.38;;;13.70;92.80;;;;;;4876902;29;20190;-90
2021/04/18 11:38:13;;;;;;;22.23;13.18;;;13.40;92.80;;;;;;4884183;29;20495;-91
2021/04/18 11:40:38;;;;;;;19.17;11.98;;;13.40;92.70;;;;;;4873458;29;20209;-89
2021/04/18 11:43:04;;;;;;;21.15;12.15;;;13.40;91.70;;;;;;4888395;29;20199;-87
2021/04/18 11:45:30;;;;;;;18.40;11.27;;;13.30;93.30;;;;;;4860861;29;20202;-90
2021/04/18 11:47:57;;;;;;;21.90;11.73;;;13.30;92.10;;;;;;4881735;29;20177;-87
2021/04/18 11:50:24;;;;;;;20.05;11.13;;;13.40;93.10;;;;;;4866630;29;20447;-87
2021/04/18 11:52:50;;;;;;;18.58;10.35;;;13.20;91.60;;;;;;4869376;29;20191;-87
2021/04/18 11:55:16;;;;;;;15.23;8.43;;;13.20;90.80;;;;;;4872581;29;20213;-86
2021/04/18 11:57:43;;;;;;;16.55;9.13;;;13.40;92.80;;;;;;4885246;29;20198;-87
2021/04/18 12:00:11;;;;;;;14.45;8.30;;;13.70;92.00;;;;;;4876309;29;20838;-86
2021/04/18 12:02:37;;;;;;;15.32;9.05;;;14.00;91.70;;;;;;4870380;29;20206;-88
2021/04/18 12:05:04;;;;;;;14.40;8.50;;;14.20;90.40;;;;;;4889550;29;20213;-87
2021/04/18 12:07:31;;;;;;;15.68;8.93;;;14.60;88.80;;;;;;4891154;29;20565;-88
2021/04/18 12:09:57;;;;;;;14.23;9.27;;;14.70;83.60;;;;;;4876847;29;20213;-87
2021/04/18 12:12:22;;;;;;;15.18;8.43;;;14.90;84.90;;;;;;4867294;29;20595;-88
2021/04/18 12:14:50;;;;;;;12.27;8.10;;;15.30;83.00;;;;;;4857311;29;20683;-88
2021/04/18 12:17:17;;;;;;;13.88;8.63;;;15.60;82.50;;;;;;4879445;29;20216;-89
2021/04/18 12:19:43;;;;;;;19.15;9.32;;;15.60;80.30;;;;;;4872536;29;20218;-86
2021/04/18 12:22:08;;;;;;;15.73;8.93;;;15.50;81.10;;;;;;4869563;29;20456;-88
2021/04/18 12:24:34;;;;;;;14.45;8.77;;;15.10;76.80;;;;;;4869596;29;20266;-92
2021/04/18 12:27:00;;;;;;;17.08;9.50;;;14.80;80.30;;;;;;4876314;29;20190;-92
2021/04/18 12:29:27;;;;;;;16.25;9.13;;;14.70;81.10;;;;;;4875640;29;20337;-92
2021/04/18 12:31:53;;;;;;;15.75;9.63;;;14.70;83.30;;;;;;4874468;29;20253;-92
2021/04/18 12:34:18;;;;;;;17.20;10.95;;;14.60;81.80;;;;;;4876234;29;20637;-89
2021/04/18 12:36:44;;;;;;;17.40;10.75;;;14.30;80.80;;;;;;4875305;29;20204;-90
2021/04/18 12:39:10;;;;;;;15.63;9.65;;;13.90;83.00;;;;;;4876263;29;20218;-89